Airfield :
LOGIN :

Register | Disclaimer

   EN    FR    IT 

 










Legend :    VFR   Marginal VFR   IFR   Intensive IFR   Very Intensive IFR
Visi :
Ceiling :
>= 8 km
>= 3000ft
5 to 8 km
1000 to 3000 ft
1500m to 5 km
500 to 1000 ft
800 to 1500m
200 to 500 ft
< 800m
< 200 ft
Symbols :   Thunderstorms  Fog  Heavy snow  Heavy precipitations  Wind > 20 kt
SIGMETs :     Misc.  Thunderstorms  Icing  Turbulence  Mountain Waves  Volcanic Ashes







- Airport Elevation : 144 ft
- IATA code : PGF
- Download approach charts


LFMP - Perpignan

CURRENT METAR :
  • 281230Z AUTO VRB08KT 9999 SCT052 30/17 Q1016 NOSIG

EXPIRED METARs :
  • 281200Z AUTO 30008KT 250V020 9999 BKN054 31/17 Q1016 BECMG 12010KT
  • 281130Z AUTO 33006KT 270V020 9999 BKN054 30/16 Q1016 BECMG 12010KT
  • 281100Z AUTO 31009KT 270V350 9999 OVC054 30/17 Q1016 BECMG 12010KT
  • 281030Z AUTO 31010KT 280V350 9999 OVC054 30/17 Q1016 BECMG 12010KT
  • 281000Z AUTO 31009KT 270V360 9999 SCT056 29/16 Q1016 NOSIG

TAF TAF LFMP
Valid from the 28 at 09:00 until the 29 at 09:00 UTC


280800Z 2809/2909 32008KT CAVOK
BECMG 2812/2815 12010KT
BECMG 2817/2820 VRB05KT
BECMG 2906/2909 09010KT
ATIS : +33 4 68 63 75 12
No reported NOTAMs for that airfield.



MET'MAP, your aeronautical weather chart ! - Copyright ORBIFLY December 2007 - Disclaimer

ORBIFLY MET'MAP TEAM :

Programming & Development : Alexandra Zaïnal
Concept & Development : Baudouin d'Aumeries
Co-Development & Prog : Marc-Olivier Méhu
Technical & hardware support : Manuel Goepfert

Contact : metmap@orbifly.com




SOURCES & CREDITS :

   NOAA